createdAt,value
2019-05-16T00:00:19.732Z,63.57
2019-05-16T00:02:49.030Z,64.00
2019-05-16T00:05:18.741Z,64.59
2019-05-16T00:07:49.182Z,61.91
2019-05-16T00:10:18.840Z,62.74
2019-05-16T00:12:48.801Z,61.45
2019-05-16T00:15:18.415Z,58.99
2019-05-16T00:17:48.834Z,60.41
2019-05-16T00:20:19.023Z,58.43
2019-05-16T00:22:48.669Z,61.30
2019-05-16T00:25:18.152Z,59.66
2019-05-16T00:27:47.935Z,61.28
2019-05-16T00:30:18.230Z,60.95
2019-05-16T00:32:48.303Z,59.12
2019-05-16T00:35:18.245Z,60.94
2019-05-16T00:37:48.429Z,61.62
2019-05-16T00:40:18.841Z,62.89
2019-05-16T00:42:49.136Z,65.21
2019-05-16T00:45:18.889Z,66.95
2019-05-16T00:47:48.237Z,66.99
2019-05-16T00:50:18.260Z,66.85
2019-05-16T00:52:48.770Z,65.00
2019-05-16T00:55:18.252Z,63.83
2019-05-16T00:57:48.144Z,64.58
2019-05-16T01:00:20.876Z,66.07
2019-05-16T01:02:50.120Z,65.56
2019-05-16T01:05:19.347Z,65.46
2019-05-16T01:07:48.675Z,64.83
2019-05-16T01:10:18.453Z,64.63
2019-05-16T01:12:48.165Z,64.80
2019-05-16T01:15:18.406Z,66.87
2019-05-16T01:17:48.341Z,66.32
2019-05-16T01:20:19.242Z,66.57
2019-05-16T01:22:49.193Z,65.21
2019-05-16T01:25:19.567Z,65.84
2019-05-16T01:27:48.913Z,64.74
2019-05-16T01:30:18.715Z,64.97
2019-05-16T01:32:49.218Z,64.37
2019-05-16T01:35:20.359Z,62.69
2019-05-16T01:37:49.592Z,61.44
2019-05-16T01:40:19.132Z,61.57
2019-05-16T01:42:49.131Z,59.86
2019-05-16T01:45:18.947Z,60.88
2019-05-16T01:47:48.414Z,60.78
2019-05-16T01:50:18.276Z,60.89
2019-05-16T01:52:48.682Z,61.12
2019-05-16T01:55:18.783Z,61.13
2019-05-16T01:57:48.293Z,60.86
2019-05-16T02:00:23.222Z,60.12
2019-05-16T02:02:48.913Z,60.92
2019-05-16T02:05:18.789Z,62.84
2019-05-16T02:07:48.269Z,62.93
2019-05-16T02:10:18.182Z,60.98
2019-05-16T02:12:48.978Z,63.26
2019-05-16T02:15:18.530Z,62.51
2019-05-16T02:17:48.559Z,62.38
2019-05-16T02:20:18.137Z,62.25
2019-05-16T02:22:48.242Z,62.90
2019-05-16T02:25:18.594Z,64.10
2019-05-16T02:27:49.122Z,63.81
2019-05-16T02:30:21.722Z,66.26
2019-05-16T02:32:52.214Z,66.31
2019-05-16T02:35:21.715Z,68.55
2019-05-16T02:37:54.925Z,65.70
2019-05-16T02:40:22.903Z,63.13
2019-05-16T02:42:55.838Z,65.94
2019-05-16T02:45:24.717Z,66.09
2019-05-16T02:47:54.125Z,66.21
2019-05-16T02:50:23.376Z,67.28
2019-05-16T02:52:52.795Z,65.41
2019-05-16T02:55:22.005Z,66.08
2019-05-16T02:57:51.595Z,65.77
2019-05-16T03:00:33.270Z,67.11
2019-05-16T03:03:03.785Z,68.25
2019-05-16T03:05:33.618Z,69.90
2019-05-16T03:08:02.962Z,70.09
2019-05-16T03:10:32.310Z,70.35
2019-05-16T03:13:01.656Z,69.52
2019-05-16T03:15:31.236Z,69.14
2019-05-16T03:18:04.355Z,68.32
2019-05-16T03:20:33.404Z,68.53
2019-05-16T03:23:02.684Z,67.30
2019-05-16T03:25:32.068Z,69.53
2019-05-16T03:28:02.201Z,68.49
2019-05-16T03:30:35.043Z,69.62
2019-05-16T03:33:05.032Z,70.81
2019-05-16T03:35:34.736Z,70.43
2019-05-16T03:38:05.842Z,70.74
2019-05-16T03:40:35.522Z,70.44
2019-05-16T03:43:04.775Z,67.97
2019-05-16T03:45:34.045Z,68.68
2019-05-16T03:48:03.631Z,67.69
2019-05-16T03:50:32.893Z,68.83
2019-05-16T03:53:02.218Z,67.25
2019-05-16T03:55:32.557Z,67.90
2019-05-16T03:58:02.142Z,67.96
2019-05-16T04:00:53.640Z,66.23
2019-05-16T04:03:22.645Z,67.10
2019-05-16T04:05:52.930Z,67.42
2019-05-16T04:08:25.001Z,67.81
2019-05-16T04:10:53.548Z,68.56
2019-05-16T04:13:22.942Z,67.78
2019-05-16T04:15:53.052Z,68.14
2019-05-16T04:18:22.766Z,66.83
2019-05-16T04:20:52.916Z,64.70
2019-05-16T04:23:22.277Z,66.07
2019-05-16T04:25:52.701Z,66.76
2019-05-16T04:28:23.327Z,66.63
2019-05-16T04:30:52.891Z,66.55
2019-05-16T04:33:22.698Z,65.90
2019-05-16T04:35:53.117Z,65.06
2019-05-16T04:38:35.043Z,65.11
2019-05-16T04:40:53.714Z,65.52
2019-05-16T04:43:23.042Z,66.20
2019-05-16T04:45:52.903Z,66.16
2019-05-16T04:48:23.123Z,65.98
2019-05-16T04:50:52.843Z,64.19
2019-05-16T04:53:22.168Z,64.76
2019-05-16T04:55:52.209Z,65.10
2019-05-16T04:58:23.744Z,64.46
2019-05-16T05:00:53.013Z,65.37
2019-05-16T05:03:22.806Z,66.51
2019-05-16T05:05:52.195Z,65.71
2019-05-16T05:08:22.487Z,65.11
2019-05-16T05:10:52.263Z,65.65
2019-05-16T05:13:22.615Z,67.16
2019-05-16T05:15:52.101Z,65.70
2019-05-16T05:18:21.805Z,66.55
2019-05-16T05:20:52.927Z,67.87
2019-05-16T05:23:22.287Z,66.36
2019-05-16T05:25:51.836Z,64.77
2019-05-16T05:28:21.558Z,65.76
2019-05-16T05:30:51.137Z,66.88
2019-05-16T05:33:21.298Z,65.60
2019-05-16T05:35:51.162Z,65.39
2019-05-16T05:38:21.591Z,64.65
2019-05-16T05:40:51.655Z,63.81
2019-05-16T05:43:22.047Z,64.24
2019-05-16T05:45:51.752Z,63.62
2019-05-16T05:48:21.953Z,64.24
2019-05-16T05:50:51.807Z,64.90
2019-05-16T05:53:21.289Z,62.48
2019-05-16T05:55:51.839Z,61.25
2019-05-16T05:58:21.641Z,61.94
2019-05-16T06:00:52.187Z,62.73
2019-05-16T06:03:22.996Z,62.37
2019-05-16T06:05:52.507Z,63.16
2019-05-16T06:08:21.828Z,62.96
2019-05-16T06:10:51.095Z,61.38
2019-05-16T06:13:21.092Z,61.93
2019-05-16T06:15:51.274Z,61.09
2019-05-16T06:18:20.577Z,60.05
2019-05-16T06:20:51.353Z,59.86
2019-05-16T06:23:21.198Z,59.45
2019-05-16T06:25:51.030Z,61.00
2019-05-16T06:28:21.295Z,59.63
2019-05-16T06:30:51.796Z,61.00
2019-05-16T06:33:21.270Z,61.86
2019-05-16T06:35:51.279Z,61.02
2019-05-16T06:38:21.390Z,61.09
2019-05-16T06:40:52.763Z,62.88
2019-05-16T06:43:21.894Z,62.54
2019-05-16T06:45:52.010Z,62.26
2019-05-16T06:48:21.679Z,62.39
2019-05-16T06:50:51.797Z,61.51
2019-05-16T06:53:21.415Z,60.80
2019-05-16T06:55:50.706Z,59.83
2019-05-16T06:58:22.223Z,59.05
2019-05-16T07:00:52.319Z,60.58
2019-05-16T07:03:21.789Z,61.67
2019-05-16T07:05:51.119Z,64.51
2019-05-16T07:08:21.197Z,64.04
2019-05-16T07:10:51.015Z,63.09
2019-05-16T07:13:20.362Z,63.44
2019-05-16T07:15:50.301Z,60.87
2019-05-16T07:18:20.873Z,59.66
2019-05-16T07:20:51.239Z,57.29
2019-05-16T07:23:21.288Z,55.51
2019-05-16T07:25:50.950Z,52.83
2019-05-16T07:28:21.061Z,52.71
2019-05-16T07:30:50.646Z,52.97
2019-05-16T07:33:21.184Z,51.38
2019-05-16T07:35:51.454Z,48.87
2019-05-16T07:38:21.084Z,49.49
2019-05-16T07:40:51.109Z,48.78
2019-05-16T07:43:20.939Z,50.17
2019-05-16T07:45:51.368Z,49.14
2019-05-16T07:48:22.000Z,47.63
2019-05-16T07:50:51.466Z,47.76
2019-05-16T07:53:21.376Z,48.67
2019-05-16T07:55:51.325Z,47.80
2019-05-16T07:58:22.409Z,45.73
2019-05-16T08:01:02.216Z,44.44
2019-05-16T08:03:22.751Z,47.06
2019-05-16T08:05:52.030Z,48.49
2019-05-16T08:08:24.117Z,51.20
2019-05-16T08:10:52.357Z,51.56
2019-05-16T08:13:21.694Z,52.85
2019-05-16T08:15:51.363Z,52.27
2019-05-16T08:18:21.613Z,55.41
2019-05-16T08:20:52.586Z,55.87
2019-05-16T08:23:22.886Z,54.31
2019-05-16T08:25:52.255Z,53.99
2019-05-16T08:28:22.040Z,53.20
2019-05-16T08:30:52.976Z,52.29
2019-05-16T08:33:22.515Z,53.17
2019-05-16T08:35:51.971Z,55.26
2019-05-16T08:38:21.940Z,55.06
2019-05-16T08:41:08.013Z,56.04
2019-05-16T08:43:22.500Z,57.06
2019-05-16T08:45:52.116Z,57.84
2019-05-16T08:48:23.427Z,58.81
2019-05-16T08:50:54.603Z,59.78
2019-05-16T08:53:23.447Z,59.81
2019-05-16T08:55:52.729Z,57.23
2019-05-16T08:58:22.965Z,58.67
2019-05-16T09:00:55.213Z,58.78
2019-05-16T09:03:23.347Z,59.38
2019-05-16T09:05:53.651Z,60.82
2019-05-16T09:08:23.082Z,61.37
2019-05-16T09:11:01.704Z,59.28
2019-05-16T09:13:23.335Z,60.26
2019-05-16T09:15:52.524Z,61.42
2019-05-16T09:18:21.866Z,62.18
2019-05-16T09:20:51.148Z,62.94
2019-05-16T09:23:20.468Z,64.19
2019-05-16T09:25:49.726Z,62.26
2019-05-16T09:28:18.970Z,62.59
2019-05-16T09:30:48.154Z,60.73
2019-05-16T09:33:17.927Z,59.92
2019-05-16T09:35:47.839Z,59.86
2019-05-16T09:38:22.910Z,59.22
2019-05-16T09:40:48.390Z,59.05
2019-05-16T09:43:18.142Z,59.15
2019-05-16T09:45:47.654Z,60.24
2019-05-16T09:48:18.829Z,61.79
2019-05-16T09:50:48.565Z,62.96
2019-05-16T09:53:17.902Z,64.94
2019-05-16T09:55:47.392Z,64.84
2019-05-16T09:58:18.329Z,61.62
2019-05-16T10:00:47.823Z,62.55
2019-05-16T10:03:20.478Z,63.19
2019-05-16T10:05:48.165Z,61.24
2019-05-16T10:08:17.607Z,59.58
2019-05-16T10:10:47.047Z,59.11
2019-05-16T10:13:18.279Z,58.79
2019-05-16T10:15:47.531Z,56.69
2019-05-16T10:18:17.114Z,56.22
2019-05-16T10:20:46.580Z,56.57
2019-05-16T10:23:18.159Z,56.53
2019-05-16T10:25:47.922Z,56.18
2019-05-16T10:28:20.012Z,58.47
2019-05-16T10:30:50.127Z,59.87
2019-05-16T10:33:19.791Z,59.39
2019-05-16T10:35:48.973Z,58.10
2019-05-16T10:38:18.354Z,56.70
2019-05-16T10:40:47.825Z,55.96
2019-05-16T10:43:17.420Z,56.18
2019-05-16T10:45:46.734Z,56.60
2019-05-16T10:48:17.612Z,56.54
2019-05-16T10:50:47.884Z,57.26
2019-05-16T10:53:33.544Z,55.78
2019-05-16T10:55:48.192Z,57.02
2019-05-16T10:58:32.932Z,57.09
2019-05-16T11:01:11.149Z,57.51
2019-05-16T11:03:19.350Z,57.57
2019-05-16T11:06:01.343Z,56.52
2019-05-16T11:08:19.523Z,57.63
2019-05-16T11:10:48.781Z,59.45
2019-05-16T11:13:20.333Z,59.44
2019-05-16T11:15:49.116Z,58.07
2019-05-16T11:18:19.042Z,57.58
2019-05-16T11:20:49.294Z,56.34
2019-05-16T11:23:23.171Z,54.93
2019-05-16T11:25:49.835Z,54.60
2019-05-16T11:28:19.301Z,54.05
2019-05-16T11:30:49.915Z,53.99
2019-05-16T11:33:19.382Z,54.72
2019-05-16T11:35:48.650Z,56.77
2019-05-16T11:38:18.021Z,54.72
2019-05-16T11:40:47.647Z,55.21
2019-05-16T11:43:21.406Z,54.78
2019-05-16T11:45:48.193Z,53.32
2019-05-16T11:48:17.498Z,49.77
2019-05-16T11:50:47.959Z,50.07
2019-05-16T11:53:17.741Z,47.46
2019-05-16T11:55:54.405Z,46.54
2019-05-16T11:58:18.344Z,47.87
2019-05-16T12:00:48.410Z,46.01
2019-05-16T12:03:17.875Z,47.20
2019-05-16T12:05:48.304Z,49.22
2019-05-16T12:08:17.858Z,47.85
2019-05-16T12:10:47.445Z,49.00
2019-05-16T12:13:28.168Z,48.11
2019-05-16T12:15:47.770Z,47.23
2019-05-16T12:18:17.468Z,47.72
2019-05-16T12:20:46.914Z,49.12
2019-05-16T12:23:17.141Z,45.25
2019-05-16T12:25:47.602Z,43.88
2019-05-16T12:28:17.208Z,44.66
2019-05-16T12:30:47.171Z,43.24
2019-05-16T12:33:18.825Z,43.68
2019-05-16T12:35:47.718Z,42.21
2019-05-16T12:38:17.360Z,41.63
2019-05-16T12:40:47.865Z,41.06
2019-05-16T12:43:18.198Z,40.35
2019-05-16T12:45:47.614Z,43.08
2019-05-16T12:48:20.321Z,44.79
2019-05-16T12:50:48.299Z,43.32
2019-05-16T12:53:17.706Z,41.52
2019-05-16T12:55:47.641Z,41.58
2019-05-16T12:58:24.924Z,43.16
2019-05-16T13:00:54.220Z,42.56
2019-05-16T13:03:19.193Z,41.34
2019-05-16T13:05:48.427Z,40.98
2019-05-16T13:08:17.611Z,41.46
2019-05-16T13:10:47.195Z,42.41
2019-05-16T13:13:17.701Z,42.47
2019-05-16T13:15:47.651Z,42.71
2019-05-16T13:18:17.217Z,43.16
2019-05-16T13:20:46.939Z,44.79
2019-05-16T13:23:18.325Z,46.84
2019-05-16T13:25:48.090Z,46.75
2019-05-16T13:28:17.606Z,48.35
2019-05-16T13:30:47.279Z,49.01
2019-05-16T13:33:17.836Z,50.75
2019-05-16T13:35:47.473Z,50.01
2019-05-16T13:38:17.559Z,51.10
2019-05-16T13:40:47.037Z,51.28
2019-05-16T13:43:17.477Z,51.42
2019-05-16T13:45:47.415Z,50.89
2019-05-16T13:48:17.302Z,47.92
2019-05-16T13:50:47.474Z,48.40
2019-05-16T13:53:16.727Z,48.28
2019-05-16T13:55:46.060Z,48.30
2019-05-16T13:58:17.906Z,48.24
2019-05-16T14:00:48.019Z,48.56
2019-05-16T14:03:17.979Z,47.80
2019-05-16T14:05:47.913Z,47.41
2019-05-16T14:08:17.320Z,45.74
2019-05-16T14:10:48.897Z,45.06
2019-05-16T14:13:17.864Z,47.02
2019-05-16T14:15:47.525Z,47.98
2019-05-16T14:18:17.656Z,48.02
2019-05-16T14:20:47.298Z,47.28
2019-05-16T14:23:17.690Z,47.93
2019-05-16T14:25:48.326Z,47.52
2019-05-16T14:28:17.922Z,47.34
2019-05-16T14:30:47.268Z,47.54
2019-05-16T14:33:17.207Z,49.66
2019-05-16T14:35:47.402Z,48.62
2019-05-16T14:38:17.594Z,48.33
2019-05-16T14:40:50.192Z,46.88
2019-05-16T14:43:18.385Z,46.20
2019-05-16T14:45:47.739Z,45.35
2019-05-16T14:48:18.375Z,43.97
2019-05-16T14:50:48.535Z,43.95
2019-05-16T14:53:18.078Z,43.58
2019-05-16T14:55:47.846Z,43.80
2019-05-16T14:58:17.529Z,44.48
2019-05-16T15:00:49.183Z,43.56
2019-05-16T15:03:18.415Z,43.22
2019-05-16T15:05:48.250Z,42.71
2019-05-16T15:08:18.319Z,43.99
2019-05-16T15:10:47.832Z,45.14
2019-05-16T15:13:17.593Z,44.53
2019-05-16T15:15:47.257Z,44.17
2019-05-16T15:18:17.791Z,44.95
2019-05-16T15:20:47.208Z,45.09
2019-05-16T15:23:17.562Z,45.92
2019-05-16T15:25:47.393Z,44.27
2019-05-16T15:28:17.347Z,44.10
2019-05-16T15:30:47.029Z,44.36
2019-05-16T15:33:19.693Z,44.89
2019-05-16T15:35:47.657Z,44.82
2019-05-16T15:38:17.085Z,45.90
2019-05-16T15:40:48.209Z,46.06
2019-05-16T15:43:18.575Z,46.40
2019-05-16T15:45:52.744Z,47.03
2019-05-16T15:48:19.269Z,47.48
2019-05-16T15:50:48.660Z,45.98
2019-05-16T15:53:18.563Z,47.31
2019-05-16T15:55:47.820Z,47.01
2019-05-16T15:58:18.098Z,47.58
2019-05-16T16:00:49.037Z,46.88
2019-05-16T16:03:18.364Z,46.47
2019-05-16T16:05:47.667Z,46.45
2019-05-16T16:08:18.251Z,46.15
2019-05-16T16:10:48.170Z,45.49
2019-05-16T16:13:19.942Z,44.88
2019-05-16T16:15:53.957Z,43.57
2019-05-16T16:18:21.970Z,45.01
2019-05-16T16:20:50.797Z,45.44
2019-05-16T16:23:20.446Z,45.54
2019-05-16T16:25:51.295Z,44.56
2019-05-16T16:28:20.832Z,44.60
2019-05-16T16:30:50.272Z,44.82
2019-05-16T16:33:25.836Z,43.21
2019-05-16T16:35:50.999Z,41.90
2019-05-16T16:38:20.347Z,41.75
2019-05-16T16:40:49.718Z,42.50
2019-05-16T16:43:19.071Z,42.73
2019-05-16T16:45:48.446Z,44.21
2019-05-16T16:48:20.543Z,45.00
2019-05-16T16:50:49.311Z,45.23
2019-05-16T16:53:18.728Z,45.47
2019-05-16T16:55:47.984Z,47.24
2019-05-16T16:58:17.742Z,48.53
2019-05-16T17:00:47.884Z,49.54
2019-05-16T17:03:17.515Z,50.17
2019-05-16T17:05:46.964Z,50.10
2019-05-16T17:08:16.927Z,50.65
2019-05-16T17:10:47.690Z,50.79
2019-05-16T17:13:17.142Z,51.57
2019-05-16T17:15:47.373Z,52.05
2019-05-16T17:18:17.446Z,52.41
2019-05-16T17:20:47.670Z,54.56
2019-05-16T17:23:17.465Z,54.85
2019-05-16T17:25:47.306Z,55.63
2019-05-16T17:28:17.323Z,56.91
2019-05-16T17:30:47.206Z,56.56
2019-05-16T17:33:18.276Z,55.54
2019-05-16T17:35:49.034Z,52.66
2019-05-16T17:38:18.477Z,54.25
2019-05-16T17:40:47.899Z,52.29
2019-05-16T17:43:18.386Z,53.13
2019-05-16T17:45:47.767Z,55.51
2019-05-16T17:48:17.703Z,57.25
2019-05-16T17:50:47.588Z,59.32
2019-05-16T17:53:17.486Z,62.13
2019-05-16T17:55:47.341Z,64.07
2019-05-16T17:58:16.885Z,65.66
2019-05-16T18:00:47.221Z,65.38
2019-05-16T18:03:17.455Z,64.10
2019-05-16T18:05:47.632Z,64.44
2019-05-16T18:08:17.199Z,63.47
2019-05-16T18:10:47.169Z,63.09
2019-05-16T18:13:17.545Z,61.71
2019-05-16T18:15:47.402Z,60.96
2019-05-16T18:18:17.685Z,61.66
2019-05-16T18:20:55.825Z,61.20
2019-05-16T18:23:19.728Z,61.07
2019-05-16T18:25:49.102Z,59.71
2019-05-16T18:28:18.632Z,60.49
2019-05-16T18:30:47.991Z,60.16
2019-05-16T18:33:17.333Z,62.25
2019-05-16T18:35:47.290Z,62.08
2019-05-16T18:38:16.717Z,63.74
2019-05-16T18:40:47.306Z,63.48
2019-05-16T18:43:16.778Z,61.91
2019-05-16T18:45:47.208Z,63.23
2019-05-16T18:48:16.738Z,62.95
2019-05-16T18:50:47.695Z,64.40
2019-05-16T18:53:17.811Z,64.92
2019-05-16T18:55:47.378Z,65.61
2019-05-16T18:58:17.963Z,65.45
2019-05-16T19:00:47.599Z,64.43
2019-05-16T19:03:16.953Z,64.47
2019-05-16T19:05:46.577Z,64.17
2019-05-16T19:08:16.441Z,63.60
2019-05-16T19:10:47.314Z,64.67
2019-05-16T19:13:17.032Z,65.31
2019-05-16T19:15:49.236Z,64.84
2019-05-16T19:18:17.686Z,65.03
2019-05-16T19:20:48.904Z,66.13
2019-05-16T19:23:18.476Z,65.92
2019-05-16T19:25:47.927Z,64.91
2019-05-16T19:28:17.407Z,64.64
2019-05-16T19:30:46.782Z,65.75
2019-05-16T19:33:17.497Z,65.40
2019-05-16T19:35:49.030Z,64.65
2019-05-16T19:38:18.624Z,65.96
2019-05-16T19:40:47.956Z,67.05
2019-05-16T19:43:18.999Z,66.74
2019-05-16T19:45:48.481Z,65.96
2019-05-16T19:48:17.801Z,65.30
2019-05-16T19:50:47.204Z,66.89
2019-05-16T19:53:16.718Z,66.67
2019-05-16T19:55:47.029Z,66.11
2019-05-16T19:58:16.592Z,64.92
2019-05-16T20:00:46.496Z,62.82
2019-05-16T20:03:16.659Z,63.28
2019-05-16T20:05:47.613Z,64.89
2019-05-16T20:08:17.590Z,64.13
2019-05-16T20:10:47.678Z,64.61
2019-05-16T20:13:18.740Z,64.89
2019-05-16T20:15:48.616Z,62.51
2019-05-16T20:18:18.467Z,62.54
2019-05-16T20:20:47.753Z,63.35
2019-05-16T20:23:18.690Z,62.94
2019-05-16T20:25:47.888Z,63.75
2019-05-16T20:28:18.430Z,63.87
2019-05-16T20:30:48.581Z,65.36
2019-05-16T20:33:18.271Z,62.77
2019-05-16T20:35:47.522Z,63.50
2019-05-16T20:38:17.348Z,65.00
2019-05-16T20:40:46.789Z,68.32
2019-05-16T20:43:16.818Z,70.15
2019-05-16T20:45:47.586Z,69.70
2019-05-16T20:48:18.538Z,69.60
2019-05-16T20:50:49.186Z,70.74
2019-05-16T20:53:18.581Z,70.12
2019-05-16T20:55:49.663Z,69.12
2019-05-16T20:58:18.780Z,68.87
2019-05-16T21:00:49.845Z,70.02
2019-05-16T21:03:18.939Z,70.27
2019-05-16T21:05:48.322Z,71.41
2019-05-16T21:08:17.483Z,71.88
2019-05-16T21:10:46.860Z,73.18
2019-05-16T21:13:17.272Z,72.53
2019-05-16T21:15:47.694Z,72.74
2019-05-16T21:18:16.966Z,73.22
2019-05-16T21:20:47.039Z,72.08
2019-05-16T21:23:19.382Z,70.63
2019-05-16T21:25:47.563Z,70.45
2019-05-16T21:28:19.905Z,71.17
2019-05-16T21:30:47.921Z,72.30
2019-05-16T21:33:18.686Z,72.12
2019-05-16T21:35:48.509Z,72.15
2019-05-16T21:38:17.868Z,71.66
2019-05-16T21:40:47.253Z,71.41
2019-05-16T21:43:16.919Z,70.50
2019-05-16T21:45:47.431Z,70.41
2019-05-16T21:48:19.471Z,71.09
2019-05-16T21:50:53.171Z,69.76
2019-05-16T21:53:22.368Z,68.27
2019-05-16T21:55:51.744Z,68.26
2019-05-16T21:58:21.600Z,68.91
2019-05-16T22:00:56.566Z,68.22
2019-05-16T22:03:26.971Z,69.02
2019-05-16T22:05:57.546Z,70.23
2019-05-16T22:08:27.055Z,69.29
2019-05-16T22:10:57.327Z,70.52
2019-05-16T22:13:26.728Z,68.62
2019-05-16T22:15:56.911Z,69.56
2019-05-16T22:18:26.280Z,66.72
2019-05-16T22:20:57.030Z,68.50
2019-05-16T22:23:26.782Z,68.49
2019-05-16T22:25:56.992Z,68.81
2019-05-16T22:28:28.381Z,68.77
2019-05-16T22:30:58.493Z,68.23
2019-05-16T22:33:27.974Z,67.15
2019-05-16T22:35:57.734Z,68.23
2019-05-16T22:38:27.085Z,67.74
2019-05-16T22:40:56.332Z,68.82
2019-05-16T22:43:26.617Z,69.72
2019-05-16T22:45:57.390Z,69.93
2019-05-16T22:48:26.889Z,71.00
2019-05-16T22:50:56.603Z,70.90
2019-05-16T22:53:27.189Z,72.77
2019-05-16T22:55:56.746Z,72.68
2019-05-16T22:58:27.075Z,73.51
2019-05-16T23:00:57.288Z,74.37
2019-05-16T23:03:27.065Z,74.48
2019-05-16T23:05:56.614Z,75.06
2019-05-16T23:08:27.243Z,75.90
2019-05-16T23:10:56.684Z,74.62
2019-05-16T23:13:26.649Z,73.62
2019-05-16T23:15:57.205Z,70.61
2019-05-16T23:18:26.830Z,70.44
2019-05-16T23:20:56.943Z,71.56
2019-05-16T23:23:26.681Z,72.73
2019-05-16T23:25:56.958Z,73.24
2019-05-16T23:28:27.821Z,72.86
2019-05-16T23:30:57.728Z,72.24
2019-05-16T23:33:27.148Z,69.63
2019-05-16T23:35:57.526Z,68.24
2019-05-16T23:38:27.609Z,68.03
2019-05-16T23:40:57.344Z,68.29
2019-05-16T23:43:26.668Z,68.84
2019-05-16T23:45:57.293Z,69.04
2019-05-16T23:48:26.541Z,69.22
2019-05-16T23:50:56.972Z,68.97
2019-05-16T23:53:26.377Z,70.17
2019-05-16T23:55:56.870Z,68.73
2019-05-16T23:58:26.124Z,69.10
